createdAt,value
2022-10-18T06:11:56.525Z,31.2
2022-10-18T06:17:38.739Z,33.8
2022-10-18T06:23:15.272Z,33.2
2022-10-18T06:28:58.764Z,31.3
2022-10-18T06:34:36.465Z,38.1
2022-10-18T06:40:17.766Z,41.1
2022-10-18T06:46:13.227Z,42.6
2022-10-18T06:51:51.159Z,43.9
2022-10-18T06:57:51.684Z,45.3
2022-10-18T07:03:29.603Z,46.4
2022-10-18T07:09:08.354Z,47.6
2022-10-18T07:15:26.042Z,48.7
2022-10-18T07:21:06.309Z,49.9
2022-10-18T07:26:48.155Z,51
2022-10-18T07:32:13.265Z,52.1
2022-10-18T07:37:52.348Z,53.3
2022-10-18T07:43:30.264Z,54.4
2022-10-18T07:48:56.577Z,55.5
2022-10-18T07:54:19.400Z,56.6
2022-10-18T08:05:13.138Z,58.8
2022-10-18T08:10:54.262Z,59.8
2022-10-18T08:16:15.929Z,60.9
2022-10-18T08:22:25.953Z,61.8
2022-10-18T08:28:05.080Z,62.9
2022-10-18T08:33:49.714Z,63.9
2022-10-18T08:39:27.540Z,64.8
2022-10-18T08:45:12.826Z,65.4
2022-10-18T08:51:08.793Z,66.2
2022-10-18T08:56:45.258Z,66.8
2022-10-18T09:02:12.947Z,67.4
2022-10-18T09:07:51.786Z,68
2022-10-18T09:13:29.582Z,68.6
2022-10-18T09:24:21.395Z,69.6
2022-10-18T09:29:43.039Z,70.2
2022-10-18T09:35:21.476Z,70.5
2022-10-18T09:41:01.402Z,71
2022-10-18T09:46:38.871Z,71.5
2022-10-18T09:57:48.180Z,72.4
2022-10-18T10:03:26.466Z,72.7
2022-10-18T10:09:07.158Z,73.1
2022-10-18T10:14:45.550Z,73.7
2022-10-18T14:36:50.003Z,60
2022-10-18T14:42:28.108Z,56.7
2022-10-18T14:48:08.659Z,53.7
2022-10-18T14:53:49.231Z,52.3
2022-10-18T14:59:30.538Z,51.4
2022-10-18T15:05:07.566Z,50.7
2022-10-18T15:10:45.213Z,50.2
2022-10-18T15:16:48.019Z,49.8
2022-10-18T15:22:36.385Z,49.5
2022-10-18T15:28:18.506Z,49.3
2022-10-18T15:33:57.391Z,49.1
2022-10-18T15:39:39.511Z,48.9
2022-10-18T15:45:20.279Z,48.8
2022-10-18T15:50:58.647Z,48.2
2022-10-18T15:56:35.897Z,47.4
2022-10-18T16:02:16.500Z,46.9
2022-10-18T16:07:40.625Z,46.6
2022-10-18T16:13:03.284Z,46.3
2022-10-18T16:18:14.544Z,46.1
2022-10-18T16:23:27.543Z,45.9
2022-10-18T16:28:49.678Z,45.8
2022-10-18T16:33:57.323Z,45.6
2022-10-18T16:39:23.501Z,45.4
2022-10-18T16:44:45.656Z,45.3
2022-10-18T16:49:59.806Z,45.1
2022-10-18T16:55:07.506Z,45
2022-10-18T17:00:14.218Z,44.9
2022-10-18T17:05:10.267Z,44.8
2022-10-18T17:15:08.364Z,44.6
2022-10-18T17:25:47.383Z,44.3
2022-10-18T17:31:33.111Z,44.2
2022-10-18T17:36:55.126Z,44.1
2022-10-18T17:42:18.391Z,44
2022-10-18T17:47:43.459Z,43.9
2022-10-18T17:53:12.191Z,43.8
2022-10-18T17:58:37.184Z,43.8
2022-10-18T18:08:55.277Z,43.6
2022-10-18T18:14:22.089Z,43.5
2022-10-18T18:25:40.349Z,43.4
2022-10-18T18:30:52.954Z,43.3
2022-10-18T18:36:34.056Z,43.3
2022-10-18T18:41:40.390Z,43.2
